createdAt,value
2019-03-31T00:01:08.831Z,19.23
2019-03-31T00:01:56.006Z,19.25
2019-03-31T00:02:56.041Z,19.25
2019-03-31T00:03:56.039Z,19.23
2019-03-31T00:04:56.107Z,19.23
2019-03-31T00:05:56.156Z,19.22
2019-03-31T00:06:56.113Z,19.23
2019-03-31T00:07:55.974Z,19.22
2019-03-31T00:08:56.090Z,19.23
2019-03-31T00:09:56.171Z,19.22
2019-03-31T00:10:56.201Z,19.22
2019-03-31T00:11:55.988Z,19.2
2019-03-31T00:12:55.863Z,19.22
2019-03-31T00:13:55.922Z,19.2
2019-03-31T00:14:55.895Z,19.22
2019-03-31T00:15:55.878Z,19.19
2019-03-31T00:16:56.106Z,19.18
2019-03-31T00:17:56.072Z,19.18
2019-03-31T00:18:56.310Z,19.16
2019-03-31T00:19:56.084Z,19.16
2019-03-31T00:20:56.137Z,19.16
2019-03-31T00:21:55.997Z,19.18
2019-03-31T00:22:56.093Z,19.19
2019-03-31T00:23:56.160Z,19.18
2019-03-31T00:24:56.216Z,19.18
2019-03-31T00:25:56.058Z,19.15
2019-03-31T00:26:56.092Z,19.15
2019-03-31T00:27:55.854Z,19.18
2019-03-31T00:28:56.166Z,19.15
2019-03-31T00:29:56.109Z,19.15
2019-03-31T00:30:55.917Z,19.16
2019-03-31T00:31:55.916Z,19.16
2019-03-31T00:32:55.965Z,19.15
2019-03-31T00:33:56.011Z,19.15
2019-03-31T00:34:55.990Z,19.15
2019-03-31T00:35:55.963Z,19.13
2019-03-31T00:36:56.085Z,19.16
2019-03-31T00:37:56.029Z,19.15
2019-03-31T00:38:55.895Z,19.13
2019-03-31T00:39:56.306Z,19.13
2019-03-31T00:40:56.155Z,19.12
2019-03-31T00:41:56.173Z,19.12
2019-03-31T00:42:56.192Z,19.12
2019-03-31T00:43:56.099Z,19.15
2019-03-31T00:44:56.234Z,19.12
2019-03-31T00:45:56.196Z,19.13
2019-03-31T00:46:55.930Z,19.15
2019-03-31T00:47:56.013Z,19.12
2019-03-31T00:48:55.983Z,19.13
2019-03-31T00:49:55.956Z,19.11
2019-03-31T00:50:56.060Z,19.12
2019-03-31T00:51:55.920Z,19.12
2019-03-31T00:52:55.921Z,19.12
2019-03-31T00:53:56.018Z,19.12
2019-03-31T00:54:56.261Z,19.11
2019-03-31T00:55:56.054Z,19.09
2019-03-31T00:56:55.979Z,19.09
2019-03-31T00:57:55.974Z,19.09
2019-03-31T00:58:56.089Z,19.09
2019-03-31T00:59:56.071Z,19.09
2019-03-31T01:00:56.193Z,19.06
2019-03-31T01:01:56.235Z,19.08
2019-03-31T01:02:55.905Z,19.09
2019-03-31T01:03:56.073Z,19.06
2019-03-31T01:04:56.169Z,19.08
2019-03-31T01:05:56.186Z,19.05
2019-03-31T01:06:55.877Z,19.08
2019-03-31T01:07:56.037Z,19.06
2019-03-31T01:08:55.977Z,19.06
2019-03-31T01:09:56.019Z,19.08
2019-03-31T01:10:58.069Z,19.06
2019-03-31T01:11:56.059Z,19.05
2019-03-31T01:12:56.152Z,19.05
2019-03-31T01:13:55.998Z,19.05
2019-03-31T01:14:56.005Z,19.05
2019-03-31T01:15:56.029Z,19.03
2019-03-31T01:16:56.116Z,19.05
2019-03-31T01:17:56.072Z,19.06
2019-03-31T01:18:56.093Z,19.06
2019-03-31T01:19:56.086Z,19.05
2019-03-31T01:20:55.891Z,19.03
2019-03-31T01:21:56.078Z,19.03
2019-03-31T01:22:56.116Z,19.05
2019-03-31T01:23:56.441Z,19.03
2019-03-31T01:24:55.867Z,19.03
2019-03-31T01:25:56.020Z,19.03
2019-03-31T01:26:56.991Z,19.02
2019-03-31T01:27:55.960Z,19.02
2019-03-31T01:28:55.996Z,19.03
2019-03-31T01:29:56.025Z,19.02
2019-03-31T01:30:56.266Z,19.01
2019-03-31T01:31:55.991Z,19.01
2019-03-31T01:32:56.031Z,19.02
2019-03-31T01:33:55.981Z,19.03
2019-03-31T01:34:56.021Z,19.02
2019-03-31T01:35:56.192Z,19.02
2019-03-31T01:36:56.261Z,19.02
2019-03-31T01:37:56.135Z,19.01
2019-03-31T01:38:56.183Z,19.02
2019-03-31T01:39:56.194Z,19.01
2019-03-31T01:40:56.185Z,18.99
2019-03-31T01:41:56.231Z,19.02
2019-03-31T01:42:56.286Z,18.99
2019-03-31T01:43:55.862Z,18.99
2019-03-31T01:44:56.120Z,18.99
2019-03-31T01:45:55.922Z,19.01
2019-03-31T01:46:56.028Z,18.98
2019-03-31T01:47:56.033Z,18.98
2019-03-31T01:48:55.955Z,18.98
2019-03-31T01:49:55.828Z,18.98
2019-03-31T01:50:55.970Z,18.97
2019-03-31T01:51:56.069Z,18.97
2019-03-31T01:52:55.865Z,18.95
2019-03-31T01:53:55.978Z,18.97
2019-03-31T01:54:56.158Z,18.95
2019-03-31T01:55:56.026Z,18.97
2019-03-31T01:56:56.130Z,18.97
2019-03-31T01:57:56.129Z,18.95
2019-03-31T01:58:56.152Z,18.95
2019-03-31T01:59:56.324Z,18.97
2019-03-31T02:00:56.099Z,18.98
2019-03-31T02:02:05.055Z,18.97
2019-03-31T02:02:55.991Z,18.95
2019-03-31T02:03:55.838Z,18.97
2019-03-31T02:04:55.916Z,18.97
2019-03-31T02:05:55.848Z,18.97
2019-03-31T02:06:56.036Z,18.94
2019-03-31T02:07:56.044Z,18.92
2019-03-31T02:08:55.874Z,18.94
2019-03-31T02:09:55.957Z,18.95
2019-03-31T02:10:56.121Z,18.95
2019-03-31T02:11:55.943Z,18.94
2019-03-31T02:12:56.154Z,18.94
2019-03-31T02:13:56.129Z,18.95
2019-03-31T02:14:56.020Z,18.94
2019-03-31T02:15:56.158Z,18.94
2019-03-31T02:16:56.021Z,18.94
2019-03-31T02:17:56.161Z,18.92
2019-03-31T02:18:56.141Z,18.94
2019-03-31T02:19:56.124Z,18.92
2019-03-31T02:20:55.967Z,18.94
2019-03-31T02:21:56.037Z,18.92
2019-03-31T02:22:55.900Z,18.91
2019-03-31T02:23:56.218Z,18.91
2019-03-31T02:24:58.838Z,18.92
2019-03-31T02:25:55.924Z,18.91
2019-03-31T02:26:56.038Z,18.91
2019-03-31T02:27:55.936Z,18.92
2019-03-31T02:28:56.555Z,18.91
2019-03-31T02:29:55.995Z,18.91
2019-03-31T02:30:56.126Z,18.9
2019-03-31T02:31:55.968Z,18.88
2019-03-31T02:32:56.371Z,18.87
2019-03-31T02:33:56.182Z,18.9
2019-03-31T02:34:56.184Z,18.88
2019-03-31T02:35:56.274Z,18.9
2019-03-31T02:36:56.153Z,18.9
2019-03-31T02:37:56.234Z,18.88
2019-03-31T02:38:55.891Z,18.87
2019-03-31T02:39:56.048Z,18.87
2019-03-31T02:40:55.946Z,18.88
2019-03-31T02:41:56.055Z,18.87
2019-03-31T02:42:55.985Z,18.9
2019-03-31T02:43:55.873Z,18.88
2019-03-31T02:44:56.059Z,18.88
2019-03-31T02:45:55.977Z,18.9
2019-03-31T02:46:55.978Z,18.91
2019-03-31T02:47:55.929Z,18.85
2019-03-31T02:48:55.989Z,18.87
2019-03-31T02:49:56.126Z,18.88
2019-03-31T02:50:55.878Z,18.87
2019-03-31T02:51:56.045Z,18.87
2019-03-31T02:52:56.062Z,18.85
2019-03-31T02:53:56.144Z,18.84
2019-03-31T02:54:55.955Z,18.87
2019-03-31T02:55:56.254Z,18.85
2019-03-31T02:56:55.976Z,18.85
2019-03-31T02:57:55.919Z,18.85
2019-03-31T02:58:55.901Z,18.85
2019-03-31T02:59:55.887Z,18.85
2019-03-31T03:00:56.046Z,18.85
2019-03-31T03:01:56.003Z,18.85
2019-03-31T03:02:55.929Z,18.84
2019-03-31T03:03:56.050Z,18.83
2019-03-31T03:04:56.284Z,18.85
2019-03-31T03:05:56.134Z,18.81
2019-03-31T03:06:55.898Z,18.84
2019-03-31T03:07:56.027Z,18.84
2019-03-31T03:08:56.065Z,18.83
2019-03-31T03:09:56.054Z,18.81
2019-03-31T03:10:56.133Z,18.81
2019-03-31T03:11:56.074Z,18.81
2019-03-31T03:12:56.067Z,18.81
2019-03-31T03:13:56.130Z,18.81
2019-03-31T03:14:55.938Z,18.81
2019-03-31T03:15:55.872Z,18.83
2019-03-31T03:16:55.857Z,18.81
2019-03-31T03:17:55.976Z,18.83
2019-03-31T03:18:56.041Z,18.83
2019-03-31T03:19:55.977Z,18.81
2019-03-31T03:20:56.034Z,18.83
2019-03-31T03:21:55.941Z,18.8
2019-03-31T03:22:55.976Z,18.83
2019-03-31T03:23:56.083Z,18.81
2019-03-31T03:24:56.157Z,18.81
2019-03-31T03:25:57.364Z,18.83
2019-03-31T03:26:56.354Z,18.81
2019-03-31T03:27:56.110Z,18.8
2019-03-31T03:28:55.993Z,18.8
2019-03-31T03:29:56.035Z,18.83
2019-03-31T03:30:58.796Z,18.8
2019-03-31T03:31:56.426Z,18.81
2019-03-31T03:33:20.174Z,18.8
2019-03-31T03:33:56.143Z,18.81
2019-03-31T03:34:56.319Z,18.78
2019-03-31T03:35:55.991Z,18.8
2019-03-31T03:36:56.040Z,18.78
2019-03-31T03:37:55.884Z,18.78
2019-03-31T03:38:55.926Z,18.8
2019-03-31T03:39:56.098Z,18.8
2019-03-31T03:40:55.986Z,18.81
2019-03-31T03:41:56.189Z,18.81
2019-03-31T03:42:55.955Z,18.78
2019-03-31T03:44:03.161Z,18.8
2019-03-31T03:44:56.022Z,18.8
2019-03-31T03:45:56.074Z,18.8
2019-03-31T03:46:56.055Z,18.81
2019-03-31T03:47:56.087Z,18.83
2019-03-31T03:48:56.924Z,18.85
2019-03-31T03:49:56.072Z,18.84
2019-03-31T03:50:56.448Z,18.87
2019-03-31T03:51:55.897Z,18.87
2019-03-31T03:52:55.936Z,18.87
2019-03-31T03:53:56.033Z,18.9
2019-03-31T03:54:55.903Z,18.88
2019-03-31T03:55:55.917Z,18.91
2019-03-31T03:56:55.945Z,18.94
2019-03-31T03:57:55.896Z,18.94
2019-03-31T03:58:56.004Z,18.95
2019-03-31T03:59:55.897Z,18.95
2019-03-31T04:00:56.022Z,18.99
2019-03-31T04:01:55.980Z,19.02
2019-03-31T04:02:56.085Z,19.05
2019-03-31T04:03:56.039Z,19.06
2019-03-31T04:04:56.122Z,19.09
2019-03-31T04:05:56.004Z,19.08
2019-03-31T04:06:57.250Z,19.11
2019-03-31T04:07:56.029Z,19.13
2019-03-31T04:08:56.077Z,19.15
2019-03-31T04:09:56.164Z,19.13
2019-03-31T04:10:55.835Z,19.18
2019-03-31T04:11:56.074Z,19.18
2019-03-31T04:12:55.988Z,19.19
2019-03-31T04:13:55.898Z,19.2
2019-03-31T04:14:55.934Z,19.23
2019-03-31T04:15:56.080Z,19.25
2019-03-31T04:16:55.860Z,19.27
2019-03-31T04:17:55.959Z,19.29
2019-03-31T04:18:55.956Z,19.29
2019-03-31T04:19:56.035Z,19.32
2019-03-31T04:20:56.053Z,19.35
2019-03-31T04:21:56.025Z,19.35
2019-03-31T04:22:56.191Z,19.39
2019-03-31T04:23:56.129Z,19.36
2019-03-31T04:24:56.039Z,19.36
2019-03-31T04:25:56.144Z,19.4
2019-03-31T04:26:56.111Z,19.42
2019-03-31T04:27:56.067Z,19.43
2019-03-31T04:28:56.191Z,19.4
2019-03-31T04:29:55.976Z,19.43
2019-03-31T04:30:55.813Z,19.47
2019-03-31T04:31:55.987Z,19.47
2019-03-31T04:32:55.863Z,19.49
2019-03-31T04:33:55.883Z,19.52
2019-03-31T04:34:55.887Z,19.5
2019-03-31T04:35:55.886Z,19.52
2019-03-31T04:36:55.876Z,19.52
2019-03-31T04:37:56.153Z,19.53
2019-03-31T04:39:01.230Z,19.53
2019-03-31T04:39:56.053Z,19.54
2019-03-31T04:40:55.968Z,19.53
2019-03-31T04:41:55.980Z,19.54
2019-03-31T04:42:56.091Z,19.56
2019-03-31T04:43:56.050Z,19.57
2019-03-31T04:44:56.023Z,19.54
2019-03-31T04:45:56.038Z,19.57
2019-03-31T04:46:56.126Z,19.57
2019-03-31T04:47:56.205Z,19.58
2019-03-31T04:48:55.878Z,19.54
2019-03-31T04:49:55.909Z,19.58
2019-03-31T04:50:55.829Z,19.6
2019-03-31T04:51:55.935Z,19.58
2019-03-31T04:52:56.047Z,19.61
2019-03-31T04:53:55.894Z,19.6
2019-03-31T04:54:56.004Z,19.6
2019-03-31T04:55:55.926Z,19.61
2019-03-31T04:56:55.955Z,19.58
2019-03-31T04:57:56.031Z,19.61
2019-03-31T04:58:56.535Z,19.61
2019-03-31T04:59:56.036Z,19.63
2019-03-31T05:00:56.155Z,19.63
2019-03-31T05:01:56.087Z,19.61
2019-03-31T05:02:56.053Z,19.63
2019-03-31T05:04:05.754Z,19.61
2019-03-31T05:04:56.019Z,19.63
2019-03-31T05:05:56.123Z,19.64
2019-03-31T05:06:55.928Z,19.6
2019-03-31T05:07:55.775Z,19.6
2019-03-31T05:08:56.091Z,19.61
2019-03-31T05:09:55.902Z,19.6
2019-03-31T05:10:55.808Z,19.61
2019-03-31T05:11:55.958Z,19.61
2019-03-31T05:12:55.849Z,19.58
2019-03-31T05:13:55.901Z,19.61
2019-03-31T05:14:55.958Z,19.6
2019-03-31T05:15:55.882Z,19.61
2019-03-31T05:16:55.951Z,19.6
2019-03-31T05:17:55.950Z,19.6
2019-03-31T05:18:56.130Z,19.57
2019-03-31T05:19:56.494Z,19.61
2019-03-31T05:20:56.484Z,19.56
2019-03-31T05:21:55.975Z,19.57
2019-03-31T05:22:56.005Z,19.6
2019-03-31T05:23:56.026Z,19.6
2019-03-31T05:24:55.899Z,19.57
2019-03-31T05:25:55.816Z,19.6
2019-03-31T05:26:55.964Z,19.56
2019-03-31T05:27:55.878Z,19.57
2019-03-31T05:28:55.890Z,19.58
2019-03-31T05:29:55.865Z,19.56
2019-03-31T05:30:55.843Z,19.57
2019-03-31T05:31:55.928Z,19.56
2019-03-31T05:32:55.922Z,19.54
2019-03-31T05:33:55.922Z,19.54
2019-03-31T05:34:55.973Z,19.54
2019-03-31T05:35:55.966Z,19.57
2019-03-31T05:36:56.074Z,19.54
2019-03-31T05:37:55.987Z,19.53
2019-03-31T05:38:56.102Z,19.54
2019-03-31T05:39:56.049Z,19.54
2019-03-31T05:40:56.171Z,19.52
2019-03-31T05:41:56.098Z,19.53
2019-03-31T05:42:56.149Z,19.53
2019-03-31T05:44:06.373Z,19.53
2019-03-31T05:44:55.905Z,19.53
2019-03-31T05:45:55.773Z,19.5
2019-03-31T05:46:55.907Z,19.52
2019-03-31T05:47:55.816Z,19.52
2019-03-31T05:48:55.905Z,19.52
2019-03-31T05:49:55.857Z,19.5
2019-03-31T05:50:55.907Z,19.49
2019-03-31T05:51:55.898Z,19.47
2019-03-31T05:52:56.031Z,19.47
2019-03-31T05:53:55.924Z,19.53
2019-03-31T05:54:55.898Z,19.49
2019-03-31T05:55:56.065Z,19.49
2019-03-31T05:56:55.941Z,19.47
2019-03-31T05:57:55.978Z,19.47
2019-03-31T05:58:56.146Z,19.45
2019-03-31T05:59:55.989Z,19.47
2019-03-31T06:00:55.927Z,19.46
2019-03-31T06:01:55.877Z,19.46
2019-03-31T06:02:55.892Z,19.47
2019-03-31T06:03:55.922Z,19.47
2019-03-31T06:04:55.853Z,19.45
2019-03-31T06:05:56.021Z,19.47
2019-03-31T06:06:56.043Z,19.43
2019-03-31T06:07:55.882Z,19.43
2019-03-31T06:08:55.885Z,19.43
2019-03-31T06:09:56.001Z,19.45
2019-03-31T06:10:55.905Z,19.43
2019-03-31T06:11:55.964Z,19.46
2019-03-31T06:12:56.018Z,19.43
2019-03-31T06:13:56.051Z,19.45
2019-03-31T06:14:55.969Z,19.43
2019-03-31T06:15:56.113Z,19.45
2019-03-31T06:16:56.120Z,19.45
2019-03-31T06:17:56.012Z,19.46
2019-03-31T06:18:56.013Z,19.43
2019-03-31T06:19:56.002Z,19.43
2019-03-31T06:20:55.816Z,19.45
2019-03-31T06:21:55.792Z,19.47
2019-03-31T06:22:55.957Z,19.43
2019-03-31T06:23:55.796Z,19.43
2019-03-31T06:24:55.981Z,19.43
2019-03-31T06:25:55.941Z,19.46
2019-03-31T06:26:55.817Z,19.43
2019-03-31T06:27:55.853Z,19.45
2019-03-31T06:28:55.938Z,19.43
2019-03-31T06:29:55.910Z,19.45
2019-03-31T06:30:55.891Z,19.45
2019-03-31T06:31:55.883Z,19.45
2019-03-31T06:32:55.944Z,19.45
2019-03-31T06:33:55.923Z,19.47
2019-03-31T06:34:55.997Z,19.46
2019-03-31T06:35:56.063Z,19.42
2019-03-31T06:36:55.980Z,19.45
2019-03-31T06:37:55.816Z,19.46
2019-03-31T06:38:55.807Z,19.47
2019-03-31T06:39:55.812Z,19.5
2019-03-31T06:40:55.891Z,19.47
2019-03-31T06:41:55.857Z,19.43
2019-03-31T06:42:55.814Z,19.47
2019-03-31T06:43:55.826Z,19.47
2019-03-31T06:44:55.881Z,19.46
2019-03-31T06:45:56.114Z,19.47
2019-03-31T06:46:55.981Z,19.46
2019-03-31T06:47:55.898Z,19.49
2019-03-31T06:48:56.084Z,19.49
2019-03-31T06:49:56.057Z,19.47
2019-03-31T06:50:55.950Z,19.47
2019-03-31T06:51:55.949Z,19.49
2019-03-31T06:52:55.989Z,19.49
2019-03-31T06:53:56.048Z,19.49
2019-03-31T06:54:56.104Z,19.49
2019-03-31T06:55:55.737Z,19.5
2019-03-31T06:56:55.771Z,19.5
2019-03-31T06:57:55.742Z,19.5
2019-03-31T06:58:55.765Z,19.49
2019-03-31T06:59:55.874Z,19.52
2019-03-31T07:00:55.777Z,19.49
2019-03-31T07:01:55.918Z,19.52
2019-03-31T07:02:55.933Z,19.52
2019-03-31T07:03:55.823Z,19.5
2019-03-31T07:05:02.365Z,19.49
2019-03-31T07:05:55.870Z,19.49
2019-03-31T07:06:55.873Z,19.52
2019-03-31T07:07:55.919Z,19.5
2019-03-31T07:08:56.001Z,19.5
2019-03-31T07:09:56.008Z,19.5
2019-03-31T07:10:55.912Z,19.52
2019-03-31T07:11:55.992Z,19.52
2019-03-31T07:13:00.025Z,19.49
2019-03-31T07:13:55.969Z,19.5
2019-03-31T07:14:55.902Z,19.49
2019-03-31T07:15:55.791Z,19.53
2019-03-31T07:16:55.813Z,19.53
2019-03-31T07:17:55.775Z,19.53
2019-03-31T07:18:55.944Z,19.53
2019-03-31T07:19:55.863Z,19.53
2019-03-31T07:20:55.848Z,19.53
2019-03-31T07:21:55.926Z,19.52
2019-03-31T07:22:55.878Z,19.52
2019-03-31T07:23:55.882Z,19.53
2019-03-31T07:24:55.949Z,19.57
2019-03-31T07:25:55.911Z,19.53
2019-03-31T07:26:55.910Z,19.52
2019-03-31T07:27:55.931Z,19.53
2019-03-31T07:28:56.189Z,19.52
2019-03-31T07:29:56.297Z,19.54
2019-03-31T07:30:59.804Z,19.53
2019-03-31T07:31:55.976Z,19.52
2019-03-31T07:32:56.115Z,19.52
2019-03-31T07:33:55.677Z,19.52
2019-03-31T07:34:55.735Z,19.53
2019-03-31T07:35:55.909Z,19.54
2019-03-31T07:36:55.729Z,19.53
2019-03-31T07:37:55.919Z,19.53
2019-03-31T07:38:56.427Z,19.53
2019-03-31T07:39:56.116Z,19.53
2019-03-31T07:41:13.618Z,19.5
2019-03-31T07:41:57.207Z,19.53
2019-03-31T07:42:56.649Z,19.5
2019-03-31T07:43:55.874Z,19.54
2019-03-31T07:44:55.976Z,19.52
2019-03-31T07:45:56.376Z,19.52
2019-03-31T07:46:55.902Z,19.52
2019-03-31T07:47:55.943Z,19.53
2019-03-31T07:48:55.995Z,19.5
2019-03-31T07:49:56.119Z,19.5
2019-03-31T07:50:56.283Z,19.52
2019-03-31T07:51:55.725Z,19.52
2019-03-31T07:52:55.809Z,19.5
2019-03-31T07:53:57.900Z,19.52
2019-03-31T07:54:55.776Z,19.52
2019-03-31T07:55:55.820Z,19.52
2019-03-31T07:56:55.799Z,19.52
2019-03-31T07:57:55.918Z,19.53
2019-03-31T07:58:56.452Z,19.52
2019-03-31T07:59:57.268Z,19.5
2019-03-31T08:00:55.950Z,19.5
2019-03-31T08:01:55.917Z,19.52
2019-03-31T08:02:55.916Z,19.52
2019-03-31T08:03:55.909Z,19.54
2019-03-31T08:04:55.897Z,19.53
2019-03-31T08:05:56.047Z,19.5
2019-03-31T08:06:55.995Z,19.53
2019-03-31T08:07:55.959Z,19.52
2019-03-31T08:08:55.949Z,19.49
2019-03-31T08:09:56.071Z,19.52
2019-03-31T08:10:55.799Z,19.5
2019-03-31T08:11:56.031Z,19.52
2019-03-31T08:12:55.913Z,19.5
2019-03-31T08:13:55.802Z,19.53
2019-03-31T08:14:55.909Z,19.52
2019-03-31T08:15:55.782Z,19.52
2019-03-31T08:16:55.778Z,19.52
2019-03-31T08:17:55.907Z,19.52
2019-03-31T08:18:55.818Z,19.52
2019-03-31T08:19:55.922Z,19.52
2019-03-31T08:20:55.873Z,19.5
2019-03-31T08:21:55.894Z,19.53
2019-03-31T08:22:57.482Z,19.52
2019-03-31T08:23:55.882Z,19.52
2019-03-31T08:24:55.997Z,19.52
2019-03-31T08:25:55.918Z,19.5
2019-03-31T08:26:55.958Z,19.53
2019-03-31T08:27:55.728Z,19.5
2019-03-31T08:28:58.895Z,19.53
2019-03-31T08:30:01.648Z,19.53
2019-03-31T08:30:55.770Z,19.52
2019-03-31T08:31:55.803Z,19.52
2019-03-31T08:32:55.851Z,19.49
2019-03-31T08:33:55.800Z,19.5
2019-03-31T08:34:55.800Z,19.5
2019-03-31T08:35:55.848Z,19.52
2019-03-31T08:36:55.956Z,19.52
2019-03-31T08:37:55.913Z,19.52
2019-03-31T08:38:55.881Z,19.52
2019-03-31T08:39:55.907Z,19.52
2019-03-31T08:40:55.997Z,19.5
2019-03-31T08:41:55.994Z,19.5
2019-03-31T08:42:56.134Z,19.52
2019-03-31T08:43:56.082Z,19.5
2019-03-31T08:44:55.961Z,19.5
2019-03-31T08:45:55.947Z,19.5
2019-03-31T08:46:55.741Z,19.49
2019-03-31T08:47:55.847Z,19.5
2019-03-31T08:48:55.900Z,19.49
2019-03-31T08:49:55.888Z,19.5
2019-03-31T08:50:55.782Z,19.5
2019-03-31T08:51:55.739Z,19.52
2019-03-31T08:52:55.903Z,19.53
2019-03-31T08:53:55.807Z,19.49
2019-03-31T08:54:56.064Z,19.47
2019-03-31T08:55:56.920Z,19.5
2019-03-31T08:56:55.818Z,19.52
2019-03-31T08:57:55.903Z,19.5
2019-03-31T08:58:56.109Z,19.47
2019-03-31T08:59:55.905Z,19.5
2019-03-31T09:00:55.847Z,19.49
2019-03-31T09:01:55.866Z,19.47
2019-03-31T09:02:56.069Z,19.47
2019-03-31T09:03:55.987Z,19.47
2019-03-31T09:04:55.934Z,19.49
2019-03-31T09:06:02.901Z,19.49
2019-03-31T09:06:55.803Z,19.49
2019-03-31T09:07:55.741Z,19.47
2019-03-31T09:08:55.860Z,19.49
2019-03-31T09:09:55.752Z,19.47
2019-03-31T09:10:55.878Z,19.49
2019-03-31T09:11:55.935Z,19.47
2019-03-31T09:12:55.802Z,19.46
2019-03-31T09:13:56.062Z,19.46
2019-03-31T09:14:55.845Z,19.47
2019-03-31T09:15:55.924Z,19.47
2019-03-31T09:16:55.819Z,19.45
2019-03-31T09:17:55.869Z,19.47
2019-03-31T09:18:55.994Z,19.47
2019-03-31T09:19:55.894Z,19.49
2019-03-31T09:20:55.883Z,19.5
2019-03-31T09:21:56.625Z,19.5
2019-03-31T09:22:55.919Z,19.52
2019-03-31T09:23:56.030Z,19.54
2019-03-31T09:24:56.055Z,19.57
2019-03-31T09:25:55.685Z,19.54
2019-03-31T09:26:55.735Z,19.53
2019-03-31T09:27:55.830Z,19.57
2019-03-31T09:28:55.701Z,19.57
2019-03-31T09:29:55.888Z,19.6
2019-03-31T09:30:55.756Z,19.57
2019-03-31T09:31:55.810Z,19.6
2019-03-31T09:32:55.774Z,19.6
2019-03-31T09:33:55.801Z,19.6
2019-03-31T09:34:55.971Z,19.57
2019-03-31T09:35:55.826Z,19.58
2019-03-31T09:36:55.861Z,19.6
2019-03-31T09:37:55.993Z,19.57
2019-03-31T09:38:56.206Z,19.6
2019-03-31T09:39:55.862Z,19.6
2019-03-31T09:40:55.871Z,19.56
2019-03-31T09:41:56.060Z,19.57
2019-03-31T09:42:55.904Z,19.56
2019-03-31T09:43:55.784Z,19.58
2019-03-31T09:44:55.807Z,19.58
2019-03-31T09:45:55.784Z,19.6
2019-03-31T09:46:55.738Z,19.61
2019-03-31T09:47:56.020Z,19.6
2019-03-31T09:48:57.847Z,19.61
2019-03-31T09:49:55.801Z,19.63
2019-03-31T09:50:56.951Z,19.58
2019-03-31T09:51:55.830Z,19.63
2019-03-31T09:52:55.936Z,19.63
2019-03-31T09:53:55.845Z,19.63
2019-03-31T09:54:55.846Z,19.65
2019-03-31T09:55:55.989Z,19.67
2019-03-31T09:56:55.950Z,19.68
2019-03-31T09:57:55.970Z,19.68
2019-03-31T09:58:55.917Z,19.7
2019-03-31T09:59:56.287Z,19.71
2019-03-31T10:00:55.928Z,19.73
2019-03-31T10:01:55.926Z,19.74
2019-03-31T10:02:55.859Z,19.75
2019-03-31T10:03:55.776Z,19.77
2019-03-31T10:04:55.755Z,19.78
2019-03-31T10:06:11.513Z,19.81
2019-03-31T10:06:55.869Z,19.8
2019-03-31T10:07:55.862Z,19.82
2019-03-31T10:08:55.743Z,19.85
2019-03-31T10:09:55.783Z,19.86
2019-03-31T10:10:55.864Z,19.85
2019-03-31T10:11:55.945Z,19.89
2019-03-31T10:12:55.791Z,19.89
2019-03-31T10:13:55.805Z,19.88
2019-03-31T10:14:55.993Z,19.91
2019-03-31T10:15:55.914Z,19.91
2019-03-31T10:16:56.004Z,19.91
2019-03-31T10:17:55.958Z,19.92
2019-03-31T10:18:55.941Z,19.93
2019-03-31T10:19:55.907Z,19.93
2019-03-31T10:20:55.911Z,19.95
2019-03-31T10:21:56.006Z,19.99
2019-03-31T10:22:55.797Z,19.98
2019-03-31T10:23:55.838Z,19.98
2019-03-31T10:24:55.746Z,19.99
2019-03-31T10:25:55.834Z,19.98
2019-03-31T10:26:55.919Z,19.98
2019-03-31T10:27:55.796Z,20.01
2019-03-31T10:28:55.866Z,20.02
2019-03-31T10:29:56.711Z,20.01
2019-03-31T10:30:55.929Z,20.01
2019-03-31T10:31:55.926Z,20.02
2019-03-31T10:32:56.050Z,20.04
2019-03-31T10:33:55.961Z,20.05
2019-03-31T10:34:55.874Z,20.05
2019-03-31T10:35:55.901Z,20.08
2019-03-31T10:36:55.980Z,20.09
2019-03-31T10:37:55.998Z,20.09
2019-03-31T10:38:55.918Z,20.11
2019-03-31T10:39:55.950Z,20.12
2019-03-31T10:40:55.648Z,20.11
2019-03-31T10:41:55.829Z,20.12
2019-03-31T10:42:55.947Z,20.13
2019-03-31T10:43:57.656Z,20.18
2019-03-31T10:44:55.831Z,20.16
2019-03-31T10:45:55.735Z,20.18
2019-03-31T10:46:58.865Z,20.19
2019-03-31T10:47:55.777Z,20.18
2019-03-31T10:48:55.951Z,20.2
2019-03-31T10:49:55.786Z,20.19
2019-03-31T10:50:55.772Z,20.2
2019-03-31T10:51:55.937Z,20.19
2019-03-31T10:52:55.837Z,20.22
2019-03-31T10:53:55.849Z,20.2
2019-03-31T10:54:55.822Z,20.22
2019-03-31T10:55:55.825Z,20.22
2019-03-31T10:56:56.141Z,20.22
2019-03-31T10:57:56.113Z,20.23
2019-03-31T10:58:55.676Z,20.26
2019-03-31T10:59:55.705Z,20.22
2019-03-31T11:00:55.827Z,20.22
2019-03-31T11:01:55.798Z,20.23
2019-03-31T11:02:55.718Z,20.25
2019-03-31T11:03:55.808Z,20.25
2019-03-31T11:04:55.849Z,20.26
2019-03-31T11:05:55.866Z,20.26
2019-03-31T11:07:04.130Z,20.27
2019-03-31T11:07:55.801Z,20.23
2019-03-31T11:08:55.869Z,20.23
2019-03-31T11:09:55.887Z,20.25
2019-03-31T11:10:55.797Z,20.26
2019-03-31T11:11:55.847Z,20.27
2019-03-31T11:12:55.961Z,20.27
2019-03-31T11:13:55.884Z,20.3
2019-03-31T11:14:55.880Z,20.29
2019-03-31T11:15:57.951Z,20.27
2019-03-31T11:16:55.881Z,20.29
2019-03-31T11:17:55.929Z,20.3
2019-03-31T11:18:55.634Z,20.3
2019-03-31T11:19:55.689Z,20.29
2019-03-31T11:20:55.796Z,20.32
2019-03-31T11:21:55.700Z,20.3
2019-03-31T11:22:55.839Z,20.29
2019-03-31T11:23:55.711Z,20.32
2019-03-31T11:24:55.839Z,20.32
2019-03-31T11:25:55.896Z,20.32
2019-03-31T11:26:56.039Z,20.32
2019-03-31T11:27:56.125Z,20.3
2019-03-31T11:28:55.854Z,20.3
2019-03-31T11:29:55.805Z,20.32
2019-03-31T11:30:56.213Z,20.32
2019-03-31T11:31:55.932Z,20.32
2019-03-31T11:32:55.999Z,20.32
2019-03-31T11:33:55.900Z,20.33
2019-03-31T11:34:55.917Z,20.35
2019-03-31T11:35:55.781Z,20.3
2019-03-31T11:36:55.798Z,20.29
2019-03-31T11:37:55.782Z,20.26
2019-03-31T11:38:55.795Z,20.29
2019-03-31T11:39:55.687Z,20.3
2019-03-31T11:40:55.718Z,20.29
2019-03-31T11:41:55.751Z,20.25
2019-03-31T11:42:55.736Z,20.26
2019-03-31T11:43:55.899Z,20.25
2019-03-31T11:44:55.780Z,20.29
2019-03-31T11:45:55.714Z,20.26
2019-03-31T11:46:55.803Z,20.23
2019-03-31T11:47:55.896Z,20.2
2019-03-31T11:48:56.214Z,20.23
2019-03-31T11:49:55.846Z,20.23
2019-03-31T11:50:55.861Z,20.2
2019-03-31T11:51:55.869Z,20.23
2019-03-31T11:52:55.874Z,20.23
2019-03-31T11:53:55.948Z,20.26
2019-03-31T11:54:55.765Z,20.23
2019-03-31T11:55:55.657Z,20.25
2019-03-31T11:56:55.768Z,20.25
2019-03-31T11:57:55.686Z,20.25
2019-03-31T11:58:55.703Z,20.26
2019-03-31T11:59:56.112Z,20.23
2019-03-31T12:00:55.748Z,20.23
2019-03-31T12:01:55.831Z,20.25
2019-03-31T12:02:55.755Z,20.25
2019-03-31T12:03:55.740Z,20.23
2019-03-31T12:04:56.031Z,20.25
2019-03-31T12:05:55.908Z,20.25
2019-03-31T12:06:55.779Z,20.26
2019-03-31T12:07:55.859Z,20.22
2019-03-31T12:08:55.830Z,20.25
2019-03-31T12:09:55.805Z,20.23
2019-03-31T12:10:56.229Z,20.26
2019-03-31T12:11:56.084Z,20.26
2019-03-31T12:12:55.769Z,20.26
2019-03-31T12:13:55.740Z,20.25
2019-03-31T12:15:01.737Z,20.23
2019-03-31T12:15:55.716Z,20.22
2019-03-31T12:16:55.770Z,20.2
2019-03-31T12:17:55.769Z,20.23
2019-03-31T12:18:55.759Z,20.22
2019-03-31T12:19:55.779Z,20.2
2019-03-31T12:20:55.873Z,20.22
2019-03-31T12:21:55.830Z,20.2
2019-03-31T12:22:55.859Z,20.2
2019-03-31T12:23:55.831Z,20.19
2019-03-31T12:24:55.838Z,20.18
2019-03-31T12:25:55.972Z,20.19
2019-03-31T12:26:55.864Z,20.2
2019-03-31T12:27:56.100Z,20.18
2019-03-31T12:28:55.953Z,20.19
2019-03-31T12:29:55.709Z,20.19
2019-03-31T12:30:55.616Z,20.19
2019-03-31T12:31:55.641Z,20.18
2019-03-31T12:32:56.277Z,20.22
2019-03-31T12:33:55.657Z,20.2
2019-03-31T12:34:55.891Z,20.19
2019-03-31T12:35:55.864Z,20.18
2019-03-31T12:36:55.725Z,20.18
2019-03-31T12:37:55.878Z,20.15
2019-03-31T12:38:55.742Z,20.18
2019-03-31T12:39:55.811Z,20.15
2019-03-31T12:40:55.775Z,20.15
2019-03-31T12:41:55.793Z,20.15
2019-03-31T12:42:55.900Z,20.13
2019-03-31T12:43:55.865Z,20.13
2019-03-31T12:44:55.829Z,20.15
2019-03-31T12:45:55.898Z,20.15
2019-03-31T12:46:56.885Z,20.13
2019-03-31T12:47:55.666Z,20.13
2019-03-31T12:48:55.742Z,20.12
2019-03-31T12:49:55.767Z,20.13
2019-03-31T12:50:55.825Z,20.15
2019-03-31T12:51:55.770Z,20.12
2019-03-31T12:52:55.709Z,20.13
2019-03-31T12:53:55.906Z,20.11
2019-03-31T12:54:56.317Z,20.12
2019-03-31T12:56:01.015Z,20.09
2019-03-31T12:56:55.797Z,20.13